sensor_id;sensor_type;location;lat;lon;timestamp;temperature;humidity
56374;DHT22;58212;47.034;7.376;2023-05-10T00:01:10;13.80;99.90
56374;DHT22;58212;47.034;7.376;2023-05-10T00:03:37;13.80;99.90
56374;DHT22;58212;47.034;7.376;2023-05-10T00:06:05;13.70;99.90
56374;DHT22;58212;47.034;7.376;2023-05-10T00:08:32;13.60;99.90
56374;DHT22;58212;47.034;7.376;2023-05-10T00:10:59;13.60;99.90
56374;DHT22;58212;47.034;7.376;2023-05-10T00:13:26;13.70;99.90
56374;DHT22;58212;47.034;7.376;2023-05-10T00:15:53;13.50;99.90
56374;DHT22;58212;47.034;7.376;2023-05-10T00:18:20;13.50;99.90
56374;DHT22;58212;47.034;7.376;2023-05-10T00:20:47;13.40;99.90
56374;DHT22;58212;47.034;7.376;2023-05-10T00:23:16;13.40;99.90
56374;DHT22;58212;47.034;7.376;2023-05-10T00:25:44;13.50;99.90
56374;DHT22;58212;47.034;7.376;2023-05-10T00:28:11;13.60;99.90
56374;DHT22;58212;47.034;7.376;2023-05-10T00:30:37;13.70;99.90
56374;DHT22;58212;47.034;7.376;2023-05-10T00:33:04;13.60;99.90
56374;DHT22;58212;47.034;7.376;2023-05-10T00:35:31;13.60;99.90
56374;DHT22;58212;47.034;7.376;2023-05-10T00:37:58;13.70;99.90
56374;DHT22;58212;47.034;7.376;2023-05-10T00:40:27;13.70;99.90
56374;DHT22;58212;47.034;7.376;2023-05-10T00:42:58;13.70;99.90
56374;DHT22;58212;47.034;7.376;2023-05-10T00:45:26;13.60;99.90
56374;DHT22;58212;47.034;7.376;2023-05-10T00:47:53;13.60;99.90
56374;DHT22;58212;47.034;7.376;2023-05-10T00:50:21;13.70;99.90
56374;DHT22;58212;47.034;7.376;2023-05-10T00:52:49;13.70;99.90
56374;DHT22;58212;47.034;7.376;2023-05-10T00:55:16;13.80;99.90
56374;DHT22;58212;47.034;7.376;2023-05-10T00:57:45;13.80;99.90
56374;DHT22;58212;47.034;7.376;2023-05-10T01:00:13;13.60;99.90
56374;DHT22;58212;47.034;7.376;2023-05-10T01:02:44;13.60;99.90
56374;DHT22;58212;47.034;7.376;2023-05-10T01:05:11;13.60;99.90
56374;DHT22;58212;47.034;7.376;2023-05-10T01:07:39;13.60;99.90
56374;DHT22;58212;47.034;7.376;2023-05-10T01:10:07;13.50;99.90
56374;DHT22;58212;47.034;7.376;2023-05-10T01:12:40;13.70;99.90
56374;DHT22;58212;47.034;7.376;2023-05-10T01:15:11;13.70;99.90
56374;DHT22;58212;47.034;7.376;2023-05-10T01:17:39;13.80;99.90
56374;DHT22;58212;47.034;7.376;2023-05-10T01:20:08;13.80;99.90
56374;DHT22;58212;47.034;7.376;2023-05-10T01:23:03;13.90;99.90
56374;DHT22;58212;47.034;7.376;2023-05-10T01:25:58;13.80;99.90
56374;DHT22;58212;47.034;7.376;2023-05-10T01:28:58;13.70;99.90
56374;DHT22;58212;47.034;7.376;2023-05-10T01:34:54;13.70;99.90
56374;DHT22;58212;47.034;7.376;2023-05-10T01:37:28;13.80;99.90
56374;DHT22;58212;47.034;7.376;2023-05-10T01:40:02;13.90;99.90
56374;DHT22;58212;47.034;7.376;2023-05-10T01:42:36;13.80;99.90
56374;DHT22;58212;47.034;7.376;2023-05-10T01:45:13;13.60;99.90
56374;DHT22;58212;47.034;7.376;2023-05-10T01:47:43;13.50;99.90
56374;DHT22;58212;47.034;7.376;2023-05-10T01:50:19;13.60;99.90
56374;DHT22;58212;47.034;7.376;2023-05-10T01:52:51;13.60;99.90
56374;DHT22;58212;47.034;7.376;2023-05-10T01:55:21;13.70;99.90
56374;DHT22;58212;47.034;7.376;2023-05-10T01:57:52;13.70;99.90
56374;DHT22;58212;47.034;7.376;2023-05-10T02:00:23;13.60;99.90
56374;DHT22;58212;47.034;7.376;2023-05-10T02:02:52;13.10;99.90
56374;DHT22;58212;47.034;7.376;2023-05-10T02:05:21;13.10;99.90
56374;DHT22;58212;47.034;7.376;2023-05-10T02:07:49;13.30;99.90
56374;DHT22;58212;47.034;7.376;2023-05-10T02:10:17;13.30;99.90
56374;DHT22;58212;47.034;7.376;2023-05-10T02:12:47;13.30;99.90
56374;DHT22;58212;47.034;7.376;2023-05-10T02:15:19;13.30;99.90
56374;DHT22;58212;47.034;7.376;2023-05-10T02:17:47;13.30;99.90
56374;DHT22;58212;47.034;7.376;2023-05-10T02:20:16;13.40;99.90
56374;DHT22;58212;47.034;7.376;2023-05-10T02:22:45;13.30;99.90
56374;DHT22;58212;47.034;7.376;2023-05-10T02:25:14;13.20;99.90
56374;DHT22;58212;47.034;7.376;2023-05-10T02:27:42;13.10;99.90
56374;DHT22;58212;47.034;7.376;2023-05-10T02:30:11;13.20;99.90
56374;DHT22;58212;47.034;7.376;2023-05-10T02:32:39;13.00;99.90
56374;DHT22;58212;47.034;7.376;2023-05-10T02:35:08;13.00;99.90
56374;DHT22;58212;47.034;7.376;2023-05-10T02:37:37;13.20;99.90
56374;DHT22;58212;47.034;7.376;2023-05-10T02:40:07;13.10;99.90
56374;DHT22;58212;47.034;7.376;2023-05-10T02:42:36;13.10;99.90
56374;DHT22;58212;47.034;7.376;2023-05-10T02:45:07;13.20;99.90
56374;DHT22;58212;47.034;7.376;2023-05-10T02:47:35;13.00;99.90
56374;DHT22;58212;47.034;7.376;2023-05-10T02:50:02;12.80;99.90
56374;DHT22;58212;47.034;7.376;2023-05-10T02:52:39;12.80;99.90
56374;DHT22;58212;47.034;7.376;2023-05-10T02:55:09;12.80;99.90
56374;DHT22;58212;47.034;7.376;2023-05-10T02:57:41;12.90;99.90
56374;DHT22;58212;47.034;7.376;2023-05-10T03:00:10;13.10;99.90
56374;DHT22;58212;47.034;7.376;2023-05-10T03:02:38;13.20;99.90
56374;DHT22;58212;47.034;7.376;2023-05-10T03:05:07;13.20;99.90
56374;DHT22;58212;47.034;7.376;2023-05-10T03:07:35;13.10;99.90
56374;DHT22;58212;47.034;7.376;2023-05-10T03:10:03;13.10;99.90
56374;DHT22;58212;47.034;7.376;2023-05-10T03:12:43;13.10;99.90
56374;DHT22;58212;47.034;7.376;2023-05-10T03:15:19;12.90;99.90
56374;DHT22;58212;47.034;7.376;2023-05-10T03:17:54;13.00;99.90
56374;DHT22;58212;47.034;7.376;2023-05-10T03:20:25;12.80;99.90
56374;DHT22;58212;47.034;7.376;2023-05-10T03:22:59;12.70;99.90
56374;DHT22;58212;47.034;7.376;2023-05-10T03:25:27;12.70;99.90
56374;DHT22;58212;47.034;7.376;2023-05-10T03:27:58;12.90;99.90
56374;DHT22;58212;47.034;7.376;2023-05-10T03:30:27;12.80;99.90
56374;DHT22;58212;47.034;7.376;2023-05-10T03:32:54;12.70;99.90
56374;DHT22;58212;47.034;7.376;2023-05-10T03:35:23;12.80;99.90
56374;DHT22;58212;47.034;7.376;2023-05-10T03:37:51;12.90;99.90
56374;DHT22;58212;47.034;7.376;2023-05-10T03:40:18;12.90;99.90
56374;DHT22;58212;47.034;7.376;2023-05-10T03:42:45;12.70;99.90
56374;DHT22;58212;47.034;7.376;2023-05-10T03:45:13;12.70;99.90
56374;DHT22;58212;47.034;7.376;2023-05-10T03:47:40;12.80;99.90
56374;DHT22;58212;47.034;7.376;2023-05-10T03:50:08;12.80;99.90
56374;DHT22;58212;47.034;7.376;2023-05-10T03:52:35;12.70;99.90
56374;DHT22;58212;47.034;7.376;2023-05-10T03:55:05;12.80;99.90
56374;DHT22;58212;47.034;7.376;2023-05-10T03:57:33;13.00;99.90
56374;DHT22;58212;47.034;7.376;2023-05-10T04:00:01;13.10;99.90
56374;DHT22;58212;47.034;7.376;2023-05-10T04:02:41;12.90;99.90
56374;DHT22;58212;47.034;7.376;2023-05-10T04:05:13;12.90;99.90
56374;DHT22;58212;47.034;7.376;2023-05-10T04:07:40;13.00;99.90
56374;DHT22;58212;47.034;7.376;2023-05-10T04:10:08;12.90;99.90
56374;DHT22;58212;47.034;7.376;2023-05-10T04:12:35;12.90;99.90
56374;DHT22;58212;47.034;7.376;2023-05-10T04:15:02;12.80;99.90
56374;DHT22;58212;47.034;7.376;2023-05-10T04:17:29;12.90;99.90
56374;DHT22;58212;47.034;7.376;2023-05-10T04:19:58;12.90;99.90
56374;DHT22;58212;47.034;7.376;2023-05-10T04:22:25;12.70;99.90
56374;DHT22;58212;47.034;7.376;2023-05-10T04:24:53;12.60;99.90
56374;DHT22;58212;47.034;7.376;2023-05-10T04:27:20;12.70;99.90
56374;DHT22;58212;47.034;7.376;2023-05-10T04:29:47;12.50;99.90
56374;DHT22;58212;47.034;7.376;2023-05-10T04:32:14;12.50;99.90
56374;DHT22;58212;47.034;7.376;2023-05-10T04:34:41;12.80;99.90
56374;DHT22;58212;47.034;7.376;2023-05-10T04:37:10;12.70;99.90
56374;DHT22;58212;47.034;7.376;2023-05-10T04:39:37;12.70;99.90
56374;DHT22;58212;47.034;7.376;2023-05-10T04:42:04;12.60;99.90
56374;DHT22;58212;47.034;7.376;2023-05-10T04:44:31;12.70;99.90
56374;DHT22;58212;47.034;7.376;2023-05-10T04:46:58;12.80;99.90
56374;DHT22;58212;47.034;7.376;2023-05-10T04:49:25;12.40;99.90
56374;DHT22;58212;47.034;7.376;2023-05-10T04:51:52;12.30;99.90
56374;DHT22;58212;47.034;7.376;2023-05-10T04:54:21;12.60;99.90
56374;DHT22;58212;47.034;7.376;2023-05-10T04:56:49;12.70;99.90
56374;DHT22;58212;47.034;7.376;2023-05-10T04:59:16;12.70;99.90
56374;DHT22;58212;47.034;7.376;2023-05-10T05:01:43;12.60;99.90
56374;DHT22;58212;47.034;7.376;2023-05-10T05:04:10;12.50;99.90
56374;DHT22;58212;47.034;7.376;2023-05-10T05:06:37;12.70;99.90
56374;DHT22;58212;47.034;7.376;2023-05-10T05:09:04;12.70;99.90
56374;DHT22;58212;47.034;7.376;2023-05-10T05:11:32;12.80;99.90
56374;DHT22;58212;47.034;7.376;2023-05-10T05:13:59;12.80;99.90
56374;DHT22;58212;47.034;7.376;2023-05-10T05:16:26;12.70;99.90
56374;DHT22;58212;47.034;7.376;2023-05-10T05:18:53;12.70;99.90
56374;DHT22;58212;47.034;7.376;2023-05-10T05:21:20;12.60;99.90
56374;DHT22;58212;47.034;7.376;2023-05-10T05:23:47;12.70;99.90
56374;DHT22;58212;47.034;7.376;2023-05-10T05:26:15;12.70;99.90
56374;DHT22;58212;47.034;7.376;2023-05-10T05:28:43;12.50;99.90
56374;DHT22;58212;47.034;7.376;2023-05-10T05:31:10;12.50;99.90
56374;DHT22;58212;47.034;7.376;2023-05-10T05:33:37;12.40;99.90
56374;DHT22;58212;47.034;7.376;2023-05-10T05:36:05;12.20;99.90
56374;DHT22;58212;47.034;7.376;2023-05-10T05:38:32;12.40;99.90
56374;DHT22;58212;47.034;7.376;2023-05-10T05:40:59;12.50;99.90
56374;DHT22;58212;47.034;7.376;2023-05-10T05:43:27;12.40;99.90
56374;DHT22;58212;47.034;7.376;2023-05-10T05:45:55;12.40;99.90
56374;DHT22;58212;47.034;7.376;2023-05-10T05:48:23;12.70;99.90
56374;DHT22;58212;47.034;7.376;2023-05-10T05:50:53;12.70;99.90
56374;DHT22;58212;47.034;7.376;2023-05-10T05:53:21;12.60;99.90
56374;DHT22;58212;47.034;7.376;2023-05-10T05:55:52;12.50;99.90
56374;DHT22;58212;47.034;7.376;2023-05-10T05:58:19;12.40;99.90
56374;DHT22;58212;47.034;7.376;2023-05-10T06:00:47;12.60;99.90
56374;DHT22;58212;47.034;7.376;2023-05-10T06:03:15;12.60;99.90
56374;DHT22;58212;47.034;7.376;2023-05-10T06:05:42;12.50;99.90
56374;DHT22;58212;47.034;7.376;2023-05-10T06:08:10;12.60;99.90
56374;DHT22;58212;47.034;7.376;2023-05-10T06:10:37;12.80;99.90
56374;DHT22;58212;47.034;7.376;2023-05-10T06:13:04;12.90;99.90
56374;DHT22;58212;47.034;7.376;2023-05-10T06:15:31;13.10;99.90
56374;DHT22;58212;47.034;7.376;2023-05-10T06:17:58;12.90;99.90
56374;DHT22;58212;47.034;7.376;2023-05-10T06:20:27;12.80;99.90
56374;DHT22;58212;47.034;7.376;2023-05-10T06:22:54;13.00;99.90
56374;DHT22;58212;47.034;7.376;2023-05-10T06:25:21;13.10;99.90
56374;DHT22;58212;47.034;7.376;2023-05-10T06:27:48;12.80;99.90
56374;DHT22;58212;47.034;7.376;2023-05-10T06:30:16;12.80;99.90
56374;DHT22;58212;47.034;7.376;2023-05-10T06:32:43;13.10;99.90
56374;DHT22;58212;47.034;7.376;2023-05-10T06:35:10;13.00;99.90
56374;DHT22;58212;47.034;7.376;2023-05-10T06:37:39;13.00;99.90
56374;DHT22;58212;47.034;7.376;2023-05-10T06:40:07;13.10;99.90
56374;DHT22;58212;47.034;7.376;2023-05-10T06:42:34;13.10;99.90
56374;DHT22;58212;47.034;7.376;2023-05-10T06:45:03;13.20;99.90
56374;DHT22;58212;47.034;7.376;2023-05-10T06:47:30;13.40;99.90
56374;DHT22;58212;47.034;7.376;2023-05-10T06:49:58;13.40;99.90
56374;DHT22;58212;47.034;7.376;2023-05-10T06:52:25;13.30;99.90
56374;DHT22;58212;47.034;7.376;2023-05-10T06:55:00;13.30;99.90
56374;DHT22;58212;47.034;7.376;2023-05-10T06:57:29;13.30;99.90
56374;DHT22;58212;47.034;7.376;2023-05-10T06:59:57;13.20;99.90
56374;DHT22;58212;47.034;7.376;2023-05-10T07:02:24;13.20;99.90
56374;DHT22;58212;47.034;7.376;2023-05-10T07:04:51;13.10;99.90
56374;DHT22;58212;47.034;7.376;2023-05-10T07:07:19;13.30;99.90
56374;DHT22;58212;47.034;7.376;2023-05-10T07:09:46;13.20;99.90
56374;DHT22;58212;47.034;7.376;2023-05-10T07:12:14;13.20;99.90
56374;DHT22;58212;47.034;7.376;2023-05-10T07:14:41;13.10;99.90
56374;DHT22;58212;47.034;7.376;2023-05-10T07:17:09;13.30;99.90
56374;DHT22;58212;47.034;7.376;2023-05-10T07:19:36;13.20;99.90
56374;DHT22;58212;47.034;7.376;2023-05-10T07:22:02;13.20;99.90
56374;DHT22;58212;47.034;7.376;2023-05-10T07:24:29;13.20;99.90
56374;DHT22;58212;47.034;7.376;2023-05-10T07:26:57;13.30;99.90
56374;DHT22;58212;47.034;7.376;2023-05-10T07:29:26;13.10;99.90
56374;DHT22;58212;47.034;7.376;2023-05-10T07:31:54;13.10;99.90
56374;DHT22;58212;47.034;7.376;2023-05-10T07:34:21;13.10;99.90
56374;DHT22;58212;47.034;7.376;2023-05-10T07:36:48;13.30;99.90
56374;DHT22;58212;47.034;7.376;2023-05-10T07:39:15;13.30;99.90
56374;DHT22;58212;47.034;7.376;2023-05-10T07:41:43;13.20;99.90
56374;DHT22;58212;47.034;7.376;2023-05-10T07:44:10;13.20;99.90
56374;DHT22;58212;47.034;7.376;2023-05-10T07:46:38;13.20;99.90
56374;DHT22;58212;47.034;7.376;2023-05-10T07:49:06;13.10;99.90
56374;DHT22;58212;47.034;7.376;2023-05-10T07:51:33;12.80;99.90
56374;DHT22;58212;47.034;7.376;2023-05-10T07:54:00;12.80;99.90
56374;DHT22;58212;47.034;7.376;2023-05-10T07:56:29;12.90;99.90
56374;DHT22;58212;47.034;7.376;2023-05-10T07:58:57;12.90;99.90
56374;DHT22;58212;47.034;7.376;2023-05-10T08:01:25;12.90;99.90
56374;DHT22;58212;47.034;7.376;2023-05-10T08:03:54;12.90;99.90
56374;DHT22;58212;47.034;7.376;2023-05-10T08:06:21;12.80;99.90
56374;DHT22;58212;47.034;7.376;2023-05-10T08:08:49;12.80;99.90
56374;DHT22;58212;47.034;7.376;2023-05-10T08:11:17;12.80;99.90
56374;DHT22;58212;47.034;7.376;2023-05-10T08:13:49;12.90;99.90
56374;DHT22;58212;47.034;7.376;2023-05-10T08:16:17;13.10;99.90
56374;DHT22;58212;47.034;7.376;2023-05-10T08:18:45;13.10;99.90
56374;DHT22;58212;47.034;7.376;2023-05-10T08:21:14;13.10;99.90
56374;DHT22;58212;47.034;7.376;2023-05-10T08:23:41;13.20;99.90
56374;DHT22;58212;47.034;7.376;2023-05-10T08:26:09;13.00;99.90
56374;DHT22;58212;47.034;7.376;2023-05-10T08:28:36;13.10;99.90
56374;DHT22;58212;47.034;7.376;2023-05-10T08:31:04;13.20;99.90
56374;DHT22;58212;47.034;7.376;2023-05-10T08:33:31;13.20;99.90
56374;DHT22;58212;47.034;7.376;2023-05-10T08:35:58;13.20;99.90
56374;DHT22;58212;47.034;7.376;2023-05-10T08:38:27;13.20;99.90
56374;DHT22;58212;47.034;7.376;2023-05-10T08:40:55;13.30;99.90
56374;DHT22;58212;47.034;7.376;2023-05-10T08:43:27;13.40;99.90
56374;DHT22;58212;47.034;7.376;2023-05-10T08:45:55;13.50;99.90
56374;DHT22;58212;47.034;7.376;2023-05-10T08:48:23;14.00;99.90
56374;DHT22;58212;47.034;7.376;2023-05-10T08:50:53;14.50;99.90
56374;DHT22;58212;47.034;7.376;2023-05-10T08:53:22;14.90;99.90
56374;DHT22;58212;47.034;7.376;2023-05-10T08:55:52;14.80;99.90
56374;DHT22;58212;47.034;7.376;2023-05-10T08:58:19;14.70;99.90
56374;DHT22;58212;47.034;7.376;2023-05-10T09:00:49;14.80;99.90
56374;DHT22;58212;47.034;7.376;2023-05-10T09:03:18;14.80;99.90
56374;DHT22;58212;47.034;7.376;2023-05-10T09:05:45;14.40;99.90
56374;DHT22;58212;47.034;7.376;2023-05-10T09:08:13;14.30;99.90
56374;DHT22;58212;47.034;7.376;2023-05-10T09:10:43;14.90;99.90
56374;DHT22;58212;47.034;7.376;2023-05-10T09:13:14;14.80;99.90
56374;DHT22;58212;47.034;7.376;2023-05-10T09:15:44;15.00;99.90
56374;DHT22;58212;47.034;7.376;2023-05-10T09:18:15;15.10;99.90
56374;DHT22;58212;47.034;7.376;2023-05-10T09:20:42;15.20;99.90
56374;DHT22;58212;47.034;7.376;2023-05-10T09:23:09;15.00;99.90
56374;DHT22;58212;47.034;7.376;2023-05-10T09:25:36;14.90;99.90
56374;DHT22;58212;47.034;7.376;2023-05-10T09:28:06;15.00;99.90
56374;DHT22;58212;47.034;7.376;2023-05-10T09:30:35;15.30;99.90
56374;DHT22;58212;47.034;7.376;2023-05-10T09:33:03;15.60;99.90
56374;DHT22;58212;47.034;7.376;2023-05-10T09:35:33;15.70;99.90
56374;DHT22;58212;47.034;7.376;2023-05-10T09:38:02;16.20;99.90
56374;DHT22;58212;47.034;7.376;2023-05-10T09:40:30;16.10;99.90
56374;DHT22;58212;47.034;7.376;2023-05-10T09:42:59;16.20;99.90
56374;DHT22;58212;47.034;7.376;2023-05-10T09:45:28;16.10;99.90
56374;DHT22;58212;47.034;7.376;2023-05-10T09:47:57;15.80;99.90
56374;DHT22;58212;47.034;7.376;2023-05-10T09:50:26;15.80;99.90
56374;DHT22;58212;47.034;7.376;2023-05-10T09:52:54;16.00;99.90
56374;DHT22;58212;47.034;7.376;2023-05-10T09:55:24;16.50;99.90
56374;DHT22;58212;47.034;7.376;2023-05-10T09:57:58;16.20;99.90
56374;DHT22;58212;47.034;7.376;2023-05-10T10:00:26;16.00;99.90
56374;DHT22;58212;47.034;7.376;2023-05-10T10:02:57;15.70;99.90
56374;DHT22;58212;47.034;7.376;2023-05-10T10:05:28;15.60;99.90
56374;DHT22;58212;47.034;7.376;2023-05-10T10:07:58;15.50;99.90
56374;DHT22;58212;47.034;7.376;2023-05-10T10:10:26;15.20;99.90
56374;DHT22;58212;47.034;7.376;2023-05-10T10:12:54;15.30;99.90
56374;DHT22;58212;47.034;7.376;2023-05-10T10:15:23;15.70;99.90
56374;DHT22;58212;47.034;7.376;2023-05-10T10:17:51;15.70;99.90
56374;DHT22;58212;47.034;7.376;2023-05-10T10:20:21;15.50;99.90
56374;DHT22;58212;47.034;7.376;2023-05-10T10:22:48;15.70;99.90
56374;DHT22;58212;47.034;7.376;2023-05-10T10:25:17;15.70;99.90
56374;DHT22;58212;47.034;7.376;2023-05-10T10:27:55;15.90;99.90
56374;DHT22;58212;47.034;7.376;2023-05-10T10:30:32;16.10;99.90
56374;DHT22;58212;47.034;7.376;2023-05-10T10:33:18;16.00;99.90
56374;DHT22;58212;47.034;7.376;2023-05-10T10:35:53;16.40;99.90
56374;DHT22;58212;47.034;7.376;2023-05-10T10:38:20;16.80;99.90
56374;DHT22;58212;47.034;7.376;2023-05-10T10:40:48;17.30;99.90
56374;DHT22;58212;47.034;7.376;2023-05-10T10:43:29;16.80;99.90
56374;DHT22;58212;47.034;7.376;2023-05-10T10:46:12;16.90;99.90
56374;DHT22;58212;47.034;7.376;2023-05-10T10:48:40;16.50;99.90
56374;DHT22;58212;47.034;7.376;2023-05-10T10:51:09;15.90;99.90
56374;DHT22;58212;47.034;7.376;2023-05-10T10:53:37;16.00;99.90
56374;DHT22;58212;47.034;7.376;2023-05-10T10:56:06;16.40;99.90
56374;DHT22;58212;47.034;7.376;2023-05-10T10:58:35;16.30;99.90
56374;DHT22;58212;47.034;7.376;2023-05-10T11:01:15;16.10;99.90
56374;DHT22;58212;47.034;7.376;2023-05-10T11:06:38;15.80;99.90
56374;DHT22;58212;47.034;7.376;2023-05-10T11:09:06;15.90;99.90
56374;DHT22;58212;47.034;7.376;2023-05-10T11:11:34;15.80;99.90
56374;DHT22;58212;47.034;7.376;2023-05-10T11:14:03;16.20;99.90
56374;DHT22;58212;47.034;7.376;2023-05-10T11:16:40;16.70;99.90
56374;DHT22;58212;47.034;7.376;2023-05-10T11:19:10;16.20;99.90
56374;DHT22;58212;47.034;7.376;2023-05-10T11:21:48;16.40;99.90
56374;DHT22;58212;47.034;7.376;2023-05-10T11:24:16;16.60;99.90
56374;DHT22;58212;47.034;7.376;2023-05-10T11:26:44;16.20;99.90
56374;DHT22;58212;47.034;7.376;2023-05-10T11:29:12;16.30;99.90
56374;DHT22;58212;47.034;7.376;2023-05-10T11:31:43;16.80;99.90
56374;DHT22;58212;47.034;7.376;2023-05-10T11:34:10;17.00;99.90
56374;DHT22;58212;47.034;7.376;2023-05-10T11:36:38;16.90;99.90
56374;DHT22;58212;47.034;7.376;2023-05-10T11:39:06;17.10;99.90
56374;DHT22;58212;47.034;7.376;2023-05-10T11:41:34;17.30;99.90
56374;DHT22;58212;47.034;7.376;2023-05-10T11:44:01;17.10;99.90
56374;DHT22;58212;47.034;7.376;2023-05-10T11:46:29;17.00;99.90
56374;DHT22;58212;47.034;7.376;2023-05-10T11:48:58;17.20;99.90
56374;DHT22;58212;47.034;7.376;2023-05-10T11:51:27;17.20;99.90
56374;DHT22;58212;47.034;7.376;2023-05-10T11:53:56;17.90;99.90
56374;DHT22;58212;47.034;7.376;2023-05-10T11:56:24;18.30;99.90
56374;DHT22;58212;47.034;7.376;2023-05-10T11:58:53;18.40;99.90
56374;DHT22;58212;47.034;7.376;2023-05-10T12:01:21;18.40;99.90
56374;DHT22;58212;47.034;7.376;2023-05-10T12:03:49;17.80;99.90
56374;DHT22;58212;47.034;7.376;2023-05-10T12:06:17;18.00;99.90
56374;DHT22;58212;47.034;7.376;2023-05-10T12:08:45;18.00;99.90
56374;DHT22;58212;47.034;7.376;2023-05-10T12:11:13;18.30;99.90
56374;DHT22;58212;47.034;7.376;2023-05-10T12:13:43;18.60;99.90
56374;DHT22;58212;47.034;7.376;2023-05-10T12:16:16;18.40;99.90
56374;DHT22;58212;47.034;7.376;2023-05-10T12:18:44;18.20;99.90
56374;DHT22;58212;47.034;7.376;2023-05-10T12:21:11;18.30;99.90
56374;DHT22;58212;47.034;7.376;2023-05-10T12:23:38;18.10;99.90
56374;DHT22;58212;47.034;7.376;2023-05-10T12:26:06;18.80;99.90
56374;DHT22;58212;47.034;7.376;2023-05-10T12:28:33;18.90;99.90
56374;DHT22;58212;47.034;7.376;2023-05-10T12:31:02;19.00;99.90
56374;DHT22;58212;47.034;7.376;2023-05-10T12:33:36;18.70;99.90
56374;DHT22;58212;47.034;7.376;2023-05-10T12:36:05;18.70;99.90
56374;DHT22;58212;47.034;7.376;2023-05-10T12:38:34;18.20;99.90
56374;DHT22;58212;47.034;7.376;2023-05-10T12:41:05;17.40;99.90
56374;DHT22;58212;47.034;7.376;2023-05-10T12:43:34;17.20;99.90
56374;DHT22;58212;47.034;7.376;2023-05-10T12:46:10;16.80;99.90
56374;DHT22;58212;47.034;7.376;2023-05-10T12:48:38;17.10;99.90
56374;DHT22;58212;47.034;7.376;2023-05-10T12:51:05;17.30;99.90
56374;DHT22;58212;47.034;7.376;2023-05-10T12:53:35;17.50;99.90
56374;DHT22;58212;47.034;7.376;2023-05-10T12:56:02;17.50;99.90
56374;DHT22;58212;47.034;7.376;2023-05-10T12:58:30;17.10;99.90
56374;DHT22;58212;47.034;7.376;2023-05-10T13:00:57;16.90;99.90
56374;DHT22;58212;47.034;7.376;2023-05-10T13:03:26;16.70;99.90
56374;DHT22;58212;47.034;7.376;2023-05-10T13:05:53;17.20;99.90
56374;DHT22;58212;47.034;7.376;2023-05-10T13:08:20;17.40;99.90
56374;DHT22;58212;47.034;7.376;2023-05-10T13:10:47;17.20;99.90
56374;DHT22;58212;47.034;7.376;2023-05-10T13:13:15;17.30;99.90
56374;DHT22;58212;47.034;7.376;2023-05-10T13:15:43;17.90;99.90
56374;DHT22;58212;47.034;7.376;2023-05-10T13:18:10;17.90;99.90
56374;DHT22;58212;47.034;7.376;2023-05-10T13:20:39;17.50;99.90
56374;DHT22;58212;47.034;7.376;2023-05-10T13:23:06;17.20;99.90
56374;DHT22;58212;47.034;7.376;2023-05-10T13:25:33;17.40;99.90
56374;DHT22;58212;47.034;7.376;2023-05-10T13:28:01;17.50;99.90
56374;DHT22;58212;47.034;7.376;2023-05-10T13:30:28;17.60;99.90
56374;DHT22;58212;47.034;7.376;2023-05-10T13:32:56;17.30;99.90
56374;DHT22;58212;47.034;7.376;2023-05-10T13:35:23;17.30;99.90
56374;DHT22;58212;47.034;7.376;2023-05-10T13:37:51;17.20;99.90
56374;DHT22;58212;47.034;7.376;2023-05-10T13:40:19;17.10;99.90
56374;DHT22;58212;47.034;7.376;2023-05-10T13:42:46;16.80;99.90
56374;DHT22;58212;47.034;7.376;2023-05-10T13:45:13;16.60;99.90
56374;DHT22;58212;47.034;7.376;2023-05-10T13:47:40;17.00;99.90
56374;DHT22;58212;47.034;7.376;2023-05-10T13:50:08;17.60;99.90
56374;DHT22;58212;47.034;7.376;2023-05-10T13:52:37;17.70;99.90
56374;DHT22;58212;47.034;7.376;2023-05-10T13:55:06;18.00;99.90
56374;DHT22;58212;47.034;7.376;2023-05-10T13:57:33;18.00;99.90
56374;DHT22;58212;47.034;7.376;2023-05-10T14:00:03;18.30;99.90
56374;DHT22;58212;47.034;7.376;2023-05-10T14:02:33;18.70;99.90
56374;DHT22;58212;47.034;7.376;2023-05-10T14:05:02;17.90;99.90
56374;DHT22;58212;47.034;7.376;2023-05-10T14:07:30;17.70;99.90
56374;DHT22;58212;47.034;7.376;2023-05-10T14:09:57;18.20;99.90
56374;DHT22;58212;47.034;7.376;2023-05-10T14:12:26;18.10;99.90
56374;DHT22;58212;47.034;7.376;2023-05-10T14:14:54;18.20;99.90
56374;DHT22;58212;47.034;7.376;2023-05-10T14:17:21;18.50;99.90
56374;DHT22;58212;47.034;7.376;2023-05-10T14:19:48;18.30;99.90
56374;DHT22;58212;47.034;7.376;2023-05-10T14:22:15;17.90;99.90
56374;DHT22;58212;47.034;7.376;2023-05-10T14:24:42;18.10;99.90
56374;DHT22;58212;47.034;7.376;2023-05-10T14:27:12;18.20;99.90
56374;DHT22;58212;47.034;7.376;2023-05-10T14:29:41;18.10;99.90
56374;DHT22;58212;47.034;7.376;2023-05-10T14:32:08;18.00;99.90
56374;DHT22;58212;47.034;7.376;2023-05-10T14:34:36;18.50;99.90
56374;DHT22;58212;47.034;7.376;2023-05-10T14:37:03;18.20;99.90
56374;DHT22;58212;47.034;7.376;2023-05-10T14:39:30;18.30;99.90
56374;DHT22;58212;47.034;7.376;2023-05-10T14:41:57;18.20;99.90
56374;DHT22;58212;47.034;7.376;2023-05-10T14:44:24;18.20;99.90
56374;DHT22;58212;47.034;7.376;2023-05-10T14:46:53;18.40;99.90
56374;DHT22;58212;47.034;7.376;2023-05-10T14:49:21;18.30;99.90
56374;DHT22;58212;47.034;7.376;2023-05-10T14:51:51;18.60;99.90
56374;DHT22;58212;47.034;7.376;2023-05-10T14:54:18;18.70;99.90
56374;DHT22;58212;47.034;7.376;2023-05-10T14:56:46;18.10;99.90
56374;DHT22;58212;47.034;7.376;2023-05-10T14:59:15;18.00;99.90
56374;DHT22;58212;47.034;7.376;2023-05-10T15:01:42;18.10;99.90
56374;DHT22;58212;47.034;7.376;2023-05-10T15:04:11;17.60;99.90
56374;DHT22;58212;47.034;7.376;2023-05-10T15:06:39;17.30;99.90
56374;DHT22;58212;47.034;7.376;2023-05-10T15:09:06;17.20;99.90
56374;DHT22;58212;47.034;7.376;2023-05-10T15:11:34;17.40;99.90
56374;DHT22;58212;47.034;7.376;2023-05-10T15:14:01;17.70;99.90
56374;DHT22;58212;47.034;7.376;2023-05-10T15:16:28;17.80;99.90
56374;DHT22;58212;47.034;7.376;2023-05-10T15:18:56;18.00;99.90
56374;DHT22;58212;47.034;7.376;2023-05-10T15:21:24;18.10;99.90
56374;DHT22;58212;47.034;7.376;2023-05-10T15:23:51;17.90;99.90
56374;DHT22;58212;47.034;7.376;2023-05-10T15:26:18;17.60;99.90
56374;DHT22;58212;47.034;7.376;2023-05-10T15:28:45;17.40;99.90
56374;DHT22;58212;47.034;7.376;2023-05-10T15:31:14;17.70;99.90
56374;DHT22;58212;47.034;7.376;2023-05-10T15:33:40;17.50;99.90
56374;DHT22;58212;47.034;7.376;2023-05-10T15:36:08;17.50;99.90
56374;DHT22;58212;47.034;7.376;2023-05-10T15:38:36;17.30;99.90
56374;DHT22;58212;47.034;7.376;2023-05-10T15:41:04;17.20;99.90
56374;DHT22;58212;47.034;7.376;2023-05-10T15:43:31;16.90;99.90
56374;DHT22;58212;47.034;7.376;2023-05-10T15:45:58;17.10;99.90